createdAt,value
2019-05-12T00:00:40.886Z,1015.18
2019-05-12T00:01:41.116Z,1015.28
2019-05-12T00:02:41.331Z,1015.23
2019-05-12T00:03:41.529Z,1015.19
2019-05-12T00:04:41.711Z,1015.32
2019-05-12T00:05:41.896Z,1015.30
2019-05-12T00:06:42.082Z,1015.30
2019-05-12T00:07:42.299Z,1015.33
2019-05-12T00:08:42.509Z,1015.26
2019-05-12T00:09:42.731Z,1015.38
2019-05-12T00:10:42.942Z,1015.36
2019-05-12T00:11:43.129Z,1015.39
2019-05-12T00:12:43.294Z,1015.32
2019-05-12T00:13:43.529Z,1015.41
2019-05-12T00:14:43.686Z,1015.43
2019-05-12T00:15:43.868Z,1015.40
2019-05-12T00:16:44.032Z,1015.42
2019-05-12T00:17:44.160Z,1015.43
2019-05-12T00:18:44.342Z,1015.46
2019-05-12T00:19:44.504Z,1015.48
2019-05-12T00:20:44.657Z,1015.53
2019-05-12T00:21:44.823Z,1015.41
2019-05-12T00:22:44.982Z,1015.45
2019-05-12T00:23:47.180Z,1015.45
2019-05-12T00:24:47.760Z,1015.51
2019-05-12T00:25:45.425Z,1015.42
2019-05-12T00:26:47.629Z,1015.49
2019-05-12T00:27:48.273Z,1015.48
2019-05-12T00:28:47.817Z,1015.53
2019-05-12T00:29:48.393Z,1015.51
2019-05-12T00:30:48.596Z,1015.52
2019-05-12T00:31:47.774Z,1015.55
2019-05-12T00:32:47.885Z,1015.52
2019-05-12T00:33:48.107Z,1015.54
2019-05-12T00:34:48.065Z,1015.57
2019-05-12T00:35:48.463Z,1015.60
2019-05-12T00:36:48.695Z,1015.54
2019-05-12T00:37:48.723Z,1015.63
2019-05-12T00:38:48.882Z,1015.66
2019-05-12T00:39:48.175Z,1015.68
2019-05-12T00:40:48.205Z,1015.77
2019-05-12T00:41:48.397Z,1015.75
2019-05-12T00:42:48.591Z,1015.76
2019-05-12T00:43:49.770Z,1015.75
2019-05-12T00:44:48.912Z,1015.75
2019-05-12T00:45:49.108Z,1015.78
2019-05-12T00:46:49.271Z,1015.80
2019-05-12T00:47:49.433Z,1015.77
2019-05-12T00:48:49.610Z,1015.83
2019-05-12T00:49:50.397Z,1015.84
2019-05-12T00:50:50.969Z,1015.88
2019-05-12T00:51:50.102Z,1015.82
2019-05-12T00:52:50.282Z,1015.94
2019-05-12T00:53:50.451Z,1015.99
2019-05-12T00:54:50.629Z,1016.00
2019-05-12T00:55:50.821Z,1015.97
2019-05-12T00:56:51.000Z,1016.05
2019-05-12T00:57:51.164Z,1016.01
2019-05-12T00:58:51.313Z,1016.09
2019-05-12T00:59:52.495Z,1016.08
2019-05-12T01:00:51.643Z,1016.15
2019-05-12T01:01:51.865Z,1016.17
2019-05-12T01:02:52.055Z,1016.13
2019-05-12T01:03:52.263Z,1016.16
2019-05-12T01:04:52.435Z,1016.13
2019-05-12T01:05:52.631Z,1016.11
2019-05-12T01:06:52.876Z,1016.16
2019-05-12T01:07:53.083Z,1016.16
2019-05-12T01:08:53.286Z,1016.19
2019-05-12T01:09:53.469Z,1016.17
2019-05-12T01:10:53.638Z,1016.22
2019-05-12T01:11:53.877Z,1016.23
2019-05-12T01:12:54.044Z,1016.18
2019-05-12T01:13:54.230Z,1016.13
2019-05-12T01:14:54.368Z,1016.13
2019-05-12T01:15:55.532Z,1016.18
2019-05-12T01:16:54.689Z,1016.18
2019-05-12T01:17:54.889Z,1016.23
2019-05-12T01:18:55.050Z,1016.28
2019-05-12T01:19:55.230Z,1016.23
2019-05-12T01:20:55.422Z,1016.19
2019-05-12T01:21:55.597Z,1016.23
2019-05-12T01:22:57.907Z,1016.18
2019-05-12T01:24:00.522Z,1016.24
2019-05-12T01:24:58.043Z,1016.23
2019-05-12T01:25:58.586Z,1016.26
2019-05-12T01:26:58.218Z,1016.33
2019-05-12T01:27:58.909Z,1016.28
2019-05-12T01:28:58.102Z,1016.33
2019-05-12T01:29:58.126Z,1016.31
2019-05-12T01:30:58.273Z,1016.34
2019-05-12T01:31:58.621Z,1016.35
2019-05-12T01:32:58.602Z,1016.36
2019-05-12T01:33:58.560Z,1016.34
2019-05-12T01:34:58.775Z,1016.36
2019-05-12T01:35:58.623Z,1016.29
2019-05-12T01:36:59.103Z,1016.37
2019-05-12T01:38:01.347Z,1016.34
2019-05-12T01:39:01.885Z,1016.41
2019-05-12T01:40:00.072Z,1016.45
2019-05-12T01:40:59.732Z,1016.45
2019-05-12T01:41:58.856Z,1016.40
2019-05-12T01:42:59.002Z,1016.45
2019-05-12T01:43:59.157Z,1016.46
2019-05-12T01:44:59.303Z,1016.47
2019-05-12T01:45:59.436Z,1016.50
2019-05-12T01:46:59.582Z,1016.49
2019-05-12T01:47:59.724Z,1016.51
2019-05-12T01:48:59.888Z,1016.57
2019-05-12T01:50:00.024Z,1016.53
2019-05-12T01:51:00.151Z,1016.61
2019-05-12T01:52:00.317Z,1016.49
2019-05-12T01:53:00.451Z,1016.62
2019-05-12T01:54:10.700Z,1016.63
2019-05-12T01:55:02.767Z,1016.61
2019-05-12T01:56:00.864Z,1016.70
2019-05-12T01:57:01.004Z,1016.74
2019-05-12T01:58:01.154Z,1016.72
2019-05-12T01:59:01.350Z,1016.77
2019-05-12T02:00:01.508Z,1016.74
2019-05-12T02:01:02.999Z,1016.76
2019-05-12T02:02:02.809Z,1016.79
2019-05-12T02:03:01.938Z,1016.78
2019-05-12T02:04:02.116Z,1016.72
2019-05-12T02:05:02.276Z,1016.80
2019-05-12T02:06:02.459Z,1016.85
2019-05-12T02:07:02.600Z,1016.83
2019-05-12T02:08:02.761Z,1016.78
2019-05-12T02:09:02.918Z,1016.89
2019-05-12T02:10:03.096Z,1016.90
2019-05-12T02:11:03.252Z,1016.93
2019-05-12T02:12:03.375Z,1016.95
2019-05-12T02:13:03.493Z,1016.97
2019-05-12T02:14:03.637Z,1016.97
2019-05-12T02:15:03.794Z,1016.99
2019-05-12T02:16:03.960Z,1017.03
2019-05-12T02:17:04.205Z,1016.99
2019-05-12T02:18:04.463Z,1017.03
2019-05-12T02:19:04.607Z,1017.03
2019-05-12T02:20:04.785Z,1017.06
2019-05-12T02:21:04.928Z,1017.10
2019-05-12T02:22:05.090Z,1017.05
2019-05-12T02:23:05.253Z,1017.10
2019-05-12T02:24:07.591Z,1017.06
2019-05-12T02:25:07.945Z,1017.07
2019-05-12T02:26:08.093Z,1017.00
2019-05-12T02:27:08.170Z,1017.11
2019-05-12T02:28:06.028Z,1017.09
2019-05-12T02:29:07.862Z,1017.09
2019-05-12T02:30:09.881Z,1017.07
2019-05-12T02:31:09.263Z,1017.10
2019-05-12T02:32:06.772Z,1017.09
2019-05-12T02:33:06.957Z,1017.12
2019-05-12T02:34:07.118Z,1017.21
2019-05-12T02:35:07.277Z,1017.20
2019-05-12T02:36:07.411Z,1017.24
2019-05-12T02:37:07.609Z,1017.18
2019-05-12T02:38:07.740Z,1017.20
2019-05-12T02:39:07.889Z,1017.27
2019-05-12T02:40:08.117Z,1017.26
2019-05-12T02:41:08.269Z,1017.31
2019-05-12T02:42:08.442Z,1017.27
2019-05-12T02:43:08.610Z,1017.33
2019-05-12T02:44:08.773Z,1017.30
2019-05-12T02:45:08.918Z,1017.31
2019-05-12T02:46:09.092Z,1017.33
2019-05-12T02:47:09.250Z,1017.35
2019-05-12T02:48:09.416Z,1017.27
2019-05-12T02:49:09.590Z,1017.41
2019-05-12T02:50:09.729Z,1017.34
2019-05-12T02:51:09.912Z,1017.41
2019-05-12T02:52:10.058Z,1017.37
2019-05-12T02:53:14.229Z,1017.41
2019-05-12T02:54:10.433Z,1017.39
2019-05-12T02:55:10.602Z,1017.42
2019-05-12T02:56:10.821Z,1017.44
2019-05-12T02:57:10.973Z,1017.42
2019-05-12T02:58:11.133Z,1017.48
2019-05-12T02:59:11.304Z,1017.46
2019-05-12T03:00:11.476Z,1017.46
2019-05-12T03:01:11.655Z,1017.48
2019-05-12T03:02:14.162Z,1017.42
2019-05-12T03:03:14.765Z,1017.54
2019-05-12T03:04:14.490Z,1017.56
2019-05-12T03:05:14.856Z,1017.61
2019-05-12T03:06:15.119Z,1017.59
2019-05-12T03:07:15.366Z,1017.56
2019-05-12T03:08:15.357Z,1017.59
2019-05-12T03:09:15.095Z,1017.59
2019-05-12T03:10:14.669Z,1017.68
2019-05-12T03:11:14.901Z,1017.58
2019-05-12T03:12:14.696Z,1017.61
2019-05-12T03:13:14.975Z,1017.64
2019-05-12T03:14:15.618Z,1017.59
2019-05-12T03:15:15.410Z,1017.63
2019-05-12T03:16:15.166Z,1017.56
2019-05-12T03:17:15.651Z,1017.65
2019-05-12T03:18:14.896Z,1017.65
2019-05-12T03:19:15.287Z,1017.67
2019-05-12T03:20:16.098Z,1017.63
2019-05-12T03:21:15.471Z,1017.65
2019-05-12T03:22:16.438Z,1017.65
2019-05-12T03:23:19.341Z,1017.60
2019-05-12T03:24:17.578Z,1017.66
2019-05-12T03:25:24.769Z,1017.66
2019-05-12T03:26:18.179Z,1017.64
2019-05-12T03:27:17.702Z,1017.70
2019-05-12T03:28:17.515Z,1017.73
2019-05-12T03:29:16.643Z,1017.79
2019-05-12T03:30:19.496Z,1017.82
2019-05-12T03:31:23.620Z,1017.81
2019-05-12T03:32:19.200Z,1017.81
2019-05-12T03:33:19.436Z,1017.88
2019-05-12T03:34:20.066Z,1017.84
2019-05-12T03:35:18.703Z,1017.89
2019-05-12T03:36:18.622Z,1017.87
2019-05-12T03:37:18.636Z,1017.93
2019-05-12T03:38:19.317Z,1017.85
2019-05-12T03:39:18.467Z,1017.94
2019-05-12T03:40:18.635Z,1017.95
2019-05-12T03:41:18.776Z,1017.98
2019-05-12T03:42:18.937Z,1018.01
2019-05-12T03:43:19.180Z,1017.94
2019-05-12T03:44:19.388Z,1017.96
2019-05-12T03:45:19.557Z,1018.00
2019-05-12T03:46:19.706Z,1018.06
2019-05-12T03:47:19.857Z,1018.03
2019-05-12T03:48:20.073Z,1018.13
2019-05-12T03:49:20.285Z,1018.12
2019-05-12T03:50:20.423Z,1018.13
2019-05-12T03:51:20.595Z,1018.20
2019-05-12T03:52:24.385Z,1018.24
2019-05-12T03:53:24.792Z,1018.22
2019-05-12T03:54:24.453Z,1018.15
2019-05-12T03:55:31.792Z,1018.19
2019-05-12T03:56:25.851Z,1018.25
2019-05-12T03:57:21.658Z,1018.30
2019-05-12T03:58:21.830Z,1018.32
2019-05-12T03:59:25.343Z,1018.23
2019-05-12T04:00:24.758Z,1018.34
2019-05-12T04:01:25.557Z,1018.28
2019-05-12T04:02:24.969Z,1018.33
2019-05-12T04:03:24.727Z,1018.41
2019-05-12T04:04:24.539Z,1018.35
2019-05-12T04:05:24.508Z,1018.40
2019-05-12T04:06:24.735Z,1018.40
2019-05-12T04:07:24.542Z,1018.42
2019-05-12T04:08:24.633Z,1018.40
2019-05-12T04:09:24.803Z,1018.35
2019-05-12T04:10:24.782Z,1018.44
2019-05-12T04:11:25.235Z,1018.44
2019-05-12T04:12:25.532Z,1018.43
2019-05-12T04:13:26.540Z,1018.40
2019-05-12T04:14:25.583Z,1018.46
2019-05-12T04:15:25.582Z,1018.48
2019-05-12T04:16:26.051Z,1018.49
2019-05-12T04:17:25.207Z,1018.52
2019-05-12T04:18:25.365Z,1018.51
2019-05-12T04:19:25.526Z,1018.52
2019-05-12T04:20:25.764Z,1018.51
2019-05-12T04:21:25.819Z,1018.49
2019-05-12T04:22:26.006Z,1018.52
2019-05-12T04:23:26.164Z,1018.62
2019-05-12T04:24:26.332Z,1018.59
2019-05-12T04:25:44.729Z,1018.56
2019-05-12T04:26:27.786Z,1018.60
2019-05-12T04:27:26.956Z,1018.55
2019-05-12T04:28:27.126Z,1018.54
2019-05-12T04:29:27.311Z,1018.63
2019-05-12T04:30:27.458Z,1018.57
2019-05-12T04:31:27.608Z,1018.57
2019-05-12T04:32:27.743Z,1018.60
2019-05-12T04:33:28.896Z,1018.63
2019-05-12T04:34:28.140Z,1018.59
2019-05-12T04:35:29.283Z,1018.72
2019-05-12T04:36:28.423Z,1018.68
2019-05-12T04:37:28.601Z,1018.74
2019-05-12T04:38:28.723Z,1018.70
2019-05-12T04:39:28.863Z,1018.76
2019-05-12T04:40:29.005Z,1018.72
2019-05-12T04:41:29.146Z,1018.76
2019-05-12T04:42:29.290Z,1018.76
2019-05-12T04:43:29.427Z,1018.79
2019-05-12T04:44:29.565Z,1018.72
2019-05-12T04:45:29.762Z,1018.73
2019-05-12T04:46:29.915Z,1018.82
2019-05-12T04:47:30.087Z,1018.80
2019-05-12T04:48:30.264Z,1018.82
2019-05-12T04:49:30.427Z,1018.87
2019-05-12T04:50:30.594Z,1018.89
2019-05-12T04:51:30.780Z,1018.93
2019-05-12T04:52:30.961Z,1018.95
2019-05-12T04:53:31.117Z,1018.89
2019-05-12T04:54:31.310Z,1019.07
2019-05-12T04:55:31.486Z,1019.02
2019-05-12T04:56:35.403Z,1019.05
2019-05-12T04:57:34.692Z,1019.11
2019-05-12T04:58:35.031Z,1019.16
2019-05-12T04:59:34.491Z,1019.06
2019-05-12T05:00:34.825Z,1019.07
2019-05-12T05:01:34.625Z,1019.10
2019-05-12T05:02:36.504Z,1019.10
2019-05-12T05:03:34.971Z,1019.13
2019-05-12T05:04:34.771Z,1019.19
2019-05-12T05:05:35.610Z,1019.17
2019-05-12T05:06:34.651Z,1019.25
2019-05-12T05:07:35.965Z,1019.24
2019-05-12T05:08:35.083Z,1019.23
2019-05-12T05:09:34.980Z,1019.35
2019-05-12T05:10:35.324Z,1019.31
2019-05-12T05:11:34.682Z,1019.36
2019-05-12T05:12:35.660Z,1019.32
2019-05-12T05:13:38.815Z,1019.37
2019-05-12T05:14:36.074Z,1019.42
2019-05-12T05:15:35.543Z,1019.45
2019-05-12T05:16:35.448Z,1019.46
2019-05-12T05:17:35.600Z,1019.52
2019-05-12T05:18:35.784Z,1019.50
2019-05-12T05:19:35.948Z,1019.52
2019-05-12T05:20:36.150Z,1019.56
2019-05-12T05:21:36.328Z,1019.52
2019-05-12T05:22:38.197Z,1019.58
2019-05-12T05:23:37.686Z,1019.69
2019-05-12T05:24:36.813Z,1019.67
2019-05-12T05:25:36.982Z,1019.66
2019-05-12T05:26:37.511Z,1019.72
2019-05-12T05:27:38.368Z,1019.68
2019-05-12T05:28:37.601Z,1019.66
2019-05-12T05:29:37.750Z,1019.70
2019-05-12T05:30:37.917Z,1019.71
2019-05-12T05:31:38.076Z,1019.74
2019-05-12T05:32:38.230Z,1019.76
2019-05-12T05:33:38.385Z,1019.74
2019-05-12T05:34:38.530Z,1019.70
2019-05-12T05:35:39.813Z,1019.79
2019-05-12T05:36:39.907Z,1019.76
2019-05-12T05:37:41.471Z,1019.84
2019-05-12T05:38:40.213Z,1019.83
2019-05-12T05:39:47.601Z,1019.85
2019-05-12T05:40:43.381Z,1019.82
2019-05-12T05:41:48.884Z,1019.86
2019-05-12T05:42:43.899Z,1019.86
2019-05-12T05:43:40.107Z,1019.90
2019-05-12T05:44:40.263Z,1019.92
2019-05-12T05:45:40.407Z,1019.89
2019-05-12T05:46:47.708Z,1019.83
2019-05-12T05:47:44.230Z,1019.85
2019-05-12T05:48:40.905Z,1019.87
2019-05-12T05:49:43.322Z,1019.84
2019-05-12T05:50:43.705Z,1019.84
2019-05-12T05:51:46.667Z,1019.91
2019-05-12T05:52:43.887Z,1019.84
2019-05-12T05:53:44.028Z,1019.92
2019-05-12T05:54:43.887Z,1019.91
2019-05-12T05:55:44.098Z,1019.88
2019-05-12T05:56:48.458Z,1019.86
2019-05-12T05:57:44.565Z,1019.88
2019-05-12T05:58:47.103Z,1019.89
2019-05-12T05:59:44.859Z,1019.84
2019-05-12T06:00:44.058Z,1019.87
2019-05-12T06:01:47.002Z,1019.90
2019-05-12T06:02:45.528Z,1019.91
2019-05-12T06:03:44.744Z,1019.84
2019-05-12T06:04:45.431Z,1019.90
2019-05-12T06:05:46.194Z,1019.93
2019-05-12T06:06:50.899Z,1019.94
2019-05-12T06:07:46.665Z,1019.91
2019-05-12T06:08:44.773Z,1020.00
2019-05-12T06:09:44.897Z,1020.00
2019-05-12T06:10:45.027Z,1019.96
2019-05-12T06:11:45.178Z,1019.99
2019-05-12T06:12:50.527Z,1019.95
2019-05-12T06:13:47.485Z,1020.00
2019-05-12T06:14:46.702Z,1019.97
2019-05-12T06:15:47.836Z,1019.88
2019-05-12T06:16:46.075Z,1019.96
2019-05-12T06:17:46.301Z,1019.96
2019-05-12T06:18:46.477Z,1019.97
2019-05-12T06:19:46.685Z,1020.03
2019-05-12T06:20:46.861Z,1020.07
2019-05-12T06:21:47.001Z,1020.04
2019-05-12T06:22:48.526Z,1020.00
2019-05-12T06:23:49.275Z,1020.06
2019-05-12T06:24:49.112Z,1020.05
2019-05-12T06:25:51.595Z,1020.01
2019-05-12T06:26:57.678Z,1020.04
2019-05-12T06:27:51.185Z,1020.11
2019-05-12T06:28:50.138Z,1020.13
2019-05-12T06:29:54.461Z,1020.18
2019-05-12T06:30:50.156Z,1020.13
2019-05-12T06:31:49.619Z,1020.21
2019-05-12T06:32:51.780Z,1020.18
2019-05-12T06:33:49.970Z,1020.24
2019-05-12T06:34:50.877Z,1020.29
2019-05-12T06:35:51.309Z,1020.28
2019-05-12T06:36:49.463Z,1020.26
2019-05-12T06:37:57.731Z,1020.35
2019-05-12T06:38:53.970Z,1020.32
2019-05-12T06:39:50.971Z,1020.27
2019-05-12T06:40:54.336Z,1020.29
2019-05-12T06:41:50.399Z,1020.33
2019-05-12T06:42:54.171Z,1020.33
2019-05-12T06:43:54.121Z,1020.37
2019-05-12T06:44:54.897Z,1020.37
2019-05-12T06:45:54.459Z,1020.36
2019-05-12T06:46:53.402Z,1020.44
2019-05-12T06:47:56.042Z,1020.40
2019-05-12T06:48:54.363Z,1020.37
2019-05-12T06:49:56.467Z,1020.40
2019-05-12T06:50:53.762Z,1020.36
2019-05-12T06:52:01.289Z,1020.31
2019-05-12T06:52:53.188Z,1020.39
2019-05-12T06:53:53.450Z,1020.35
2019-05-12T06:54:56.627Z,1020.37
2019-05-12T06:55:54.107Z,1020.44
2019-05-12T06:56:57.823Z,1020.34
2019-05-12T06:57:55.176Z,1020.39
2019-05-12T06:58:53.571Z,1020.41
2019-05-12T06:59:55.189Z,1020.47
2019-05-12T07:00:54.862Z,1020.51
2019-05-12T07:01:56.112Z,1020.44
2019-05-12T07:02:56.255Z,1020.43
2019-05-12T07:03:55.360Z,1020.51
2019-05-12T07:04:59.390Z,1020.46
2019-05-12T07:05:56.768Z,1020.48
2019-05-12T07:07:00.236Z,1020.43
2019-05-12T07:07:57.045Z,1020.46
2019-05-12T07:09:03.538Z,1020.48
2019-05-12T07:10:10.376Z,1020.57
2019-05-12T07:11:01.723Z,1020.55
2019-05-12T07:12:02.717Z,1020.57
2019-05-12T07:13:01.692Z,1020.53
2019-05-12T07:14:04.475Z,1020.55
2019-05-12T07:14:58.877Z,1020.51
2019-05-12T07:15:57.407Z,1020.53
2019-05-12T07:17:01.571Z,1020.60
2019-05-12T07:17:58.673Z,1020.62
2019-05-12T07:18:56.905Z,1020.56
2019-05-12T07:19:58.404Z,1020.61
2019-05-12T07:20:58.262Z,1020.55
2019-05-12T07:22:00.084Z,1020.54
2019-05-12T07:22:58.589Z,1020.54
2019-05-12T07:24:00.422Z,1020.56
2019-05-12T07:24:59.989Z,1020.63
2019-05-12T07:25:58.136Z,1020.56
2019-05-12T07:27:04.149Z,1020.62
2019-05-12T07:28:04.175Z,1020.62
2019-05-12T07:29:00.627Z,1020.59
2019-05-12T07:29:58.755Z,1020.58
2019-05-12T07:30:58.947Z,1020.65
2019-05-12T07:31:59.124Z,1020.73
2019-05-12T07:33:01.160Z,1020.73
2019-05-12T07:34:04.237Z,1020.76
2019-05-12T07:35:00.677Z,1020.78
2019-05-12T07:36:01.305Z,1020.76
2019-05-12T07:37:00.937Z,1020.74
2019-05-12T07:38:00.336Z,1020.78
2019-05-12T07:39:04.154Z,1020.81
2019-05-12T07:40:04.629Z,1020.85
2019-05-12T07:41:05.595Z,1020.87
2019-05-12T07:42:03.632Z,1020.86
2019-05-12T07:43:00.995Z,1020.89
2019-05-12T07:44:03.424Z,1020.89
2019-05-12T07:45:03.769Z,1020.90
2019-05-12T07:46:06.693Z,1020.85
2019-05-12T07:47:03.807Z,1020.83
2019-05-12T07:48:08.107Z,1020.84
2019-05-12T07:49:04.086Z,1020.85
2019-05-12T07:50:04.483Z,1020.81
2019-05-12T07:51:04.193Z,1020.77
2019-05-12T07:52:03.746Z,1020.78
2019-05-12T07:53:04.319Z,1020.76
2019-05-12T07:54:04.143Z,1020.72
2019-05-12T07:55:04.381Z,1020.63
2019-05-12T07:56:04.309Z,1020.71
2019-05-12T07:57:11.464Z,1020.70
2019-05-12T07:58:13.673Z,1020.73
2019-05-12T07:59:05.771Z,1020.72
2019-05-12T08:00:03.888Z,1020.66
2019-05-12T08:01:07.143Z,1020.67
2019-05-12T08:02:05.201Z,1020.73
2019-05-12T08:03:14.360Z,1020.64
2019-05-12T08:04:06.504Z,1020.68
2019-05-12T08:05:04.618Z,1020.72
2019-05-12T08:06:04.831Z,1020.66
2019-05-12T08:07:05.000Z,1020.69
2019-05-12T08:08:09.573Z,1020.73
2019-05-12T08:09:07.355Z,1020.73
2019-05-12T08:10:07.168Z,1020.74
2019-05-12T08:11:07.641Z,1020.71
2019-05-12T08:12:09.584Z,1020.70
2019-05-12T08:13:07.991Z,1020.71
2019-05-12T08:14:06.202Z,1020.78
2019-05-12T08:15:09.607Z,1020.72
2019-05-12T08:16:07.538Z,1020.75
2019-05-12T08:17:11.025Z,1020.77
2019-05-12T08:18:08.862Z,1020.80
2019-05-12T08:19:08.601Z,1020.85
2019-05-12T08:20:08.321Z,1020.81
2019-05-12T08:21:07.538Z,1020.82
2019-05-12T08:22:07.604Z,1020.84
2019-05-12T08:23:10.308Z,1020.79
2019-05-12T08:24:09.019Z,1020.90
2019-05-12T08:25:08.211Z,1020.89
2019-05-12T08:26:11.974Z,1020.87
2019-05-12T08:27:10.599Z,1020.88
2019-05-12T08:28:16.245Z,1020.86
2019-05-12T08:29:17.054Z,1020.85
2019-05-12T08:30:13.638Z,1020.90
2019-05-12T08:31:09.345Z,1020.85
2019-05-12T08:32:10.013Z,1020.77
2019-05-12T08:33:11.647Z,1020.70
2019-05-12T08:34:09.800Z,1020.76
2019-05-12T08:35:10.104Z,1020.73
2019-05-12T08:36:11.713Z,1020.78
2019-05-12T08:37:13.820Z,1020.67
2019-05-12T08:38:10.592Z,1020.81
2019-05-12T08:39:11.954Z,1020.73
2019-05-12T08:40:15.390Z,1020.78
2019-05-12T08:41:11.075Z,1020.90
2019-05-12T08:42:11.288Z,1020.81
2019-05-12T08:43:11.503Z,1020.84
2019-05-12T08:44:13.537Z,1020.95
2019-05-12T08:45:15.276Z,1020.97
2019-05-12T08:46:15.724Z,1021.04
2019-05-12T08:47:15.033Z,1021.02
2019-05-12T08:48:17.009Z,1021.05
2019-05-12T08:49:14.623Z,1020.97
2019-05-12T08:50:13.877Z,1021.11
2019-05-12T08:51:14.547Z,1021.10
2019-05-12T08:52:14.278Z,1021.10
2019-05-12T08:53:20.350Z,1020.98
2019-05-12T08:54:15.437Z,1020.92
2019-05-12T08:55:16.366Z,1020.90
2019-05-12T08:56:19.236Z,1020.85
2019-05-12T08:57:16.015Z,1020.89
2019-05-12T08:58:29.605Z,1020.84
2019-05-12T08:59:18.503Z,1020.79
2019-05-12T09:00:15.468Z,1020.83
2019-05-12T09:01:14.628Z,1020.82
2019-05-12T09:02:14.892Z,1020.83
2019-05-12T09:03:14.925Z,1020.82
2019-05-12T09:04:18.264Z,1020.81
2019-05-12T09:05:16.364Z,1020.87
2019-05-12T09:06:19.478Z,1020.90
2019-05-12T09:07:16.775Z,1020.82
2019-05-12T09:08:15.883Z,1020.88
2019-05-12T09:09:16.077Z,1020.85
2019-05-12T09:10:16.267Z,1020.92
2019-05-12T09:11:16.476Z,1020.96
2019-05-12T09:12:16.650Z,1020.94
2019-05-12T09:13:16.857Z,1020.99
2019-05-12T09:14:17.053Z,1020.96
2019-05-12T09:15:17.248Z,1020.94
2019-05-12T09:16:17.440Z,1020.91
2019-05-12T09:17:17.636Z,1020.98
2019-05-12T09:18:19.039Z,1020.94
2019-05-12T09:19:23.785Z,1020.93
2019-05-12T09:20:20.155Z,1020.98
2019-05-12T09:21:18.315Z,1020.87
2019-05-12T09:22:20.849Z,1020.95
2019-05-12T09:23:19.668Z,1021.00
2019-05-12T09:24:21.999Z,1021.09
2019-05-12T09:25:23.736Z,1021.07
2019-05-12T09:26:26.680Z,1021.12
2019-05-12T09:27:20.341Z,1021.12
2019-05-12T09:28:19.516Z,1021.06
2019-05-12T09:29:19.767Z,1021.05
2019-05-12T09:30:19.955Z,1021.08
2019-05-12T09:31:25.452Z,1021.07
2019-05-12T09:32:23.466Z,1021.02
2019-05-12T09:33:21.450Z,1021.02
2019-05-12T09:34:23.482Z,1021.01
2019-05-12T09:35:23.582Z,1021.02
2019-05-12T09:36:21.772Z,1021.01
2019-05-12T09:37:24.054Z,1021.05
2019-05-12T09:38:23.261Z,1021.09
2019-05-12T09:39:23.482Z,1020.99
2019-05-12T09:40:24.658Z,1021.08
2019-05-12T09:41:23.926Z,1020.98
2019-05-12T09:42:25.643Z,1020.94
2019-05-12T09:43:24.219Z,1020.94
2019-05-12T09:44:26.536Z,1020.92
2019-05-12T09:45:24.512Z,1020.96
2019-05-12T09:46:23.326Z,1020.94
2019-05-12T09:47:27.590Z,1020.94
2019-05-12T09:48:24.704Z,1020.82
2019-05-12T09:49:31.428Z,1020.86
2019-05-12T09:50:25.530Z,1020.97
2019-05-12T09:51:23.912Z,1020.84
2019-05-12T09:52:27.188Z,1020.95
2019-05-12T09:53:25.142Z,1020.91
2019-05-12T09:54:27.837Z,1020.95
2019-05-12T09:55:26.510Z,1020.99
2019-05-12T09:56:24.635Z,1020.97
2019-05-12T09:57:24.847Z,1021.04
2019-05-12T09:58:27.301Z,1021.04
2019-05-12T09:59:26.221Z,1020.97
2019-05-12T10:00:30.078Z,1021.00
2019-05-12T10:01:29.309Z,1021.04
2019-05-12T10:02:27.757Z,1021.01
2019-05-12T10:03:25.895Z,1021.01
2019-05-12T10:04:26.101Z,1020.87
2019-05-12T10:05:30.453Z,1021.03
2019-05-12T10:06:27.510Z,1021.01
2019-05-12T10:07:26.647Z,1021.04
2019-05-12T10:08:29.427Z,1021.04
2019-05-12T10:09:29.067Z,1020.96
2019-05-12T10:10:29.023Z,1020.90
2019-05-12T10:11:29.373Z,1020.95
2019-05-12T10:12:29.881Z,1020.91
2019-05-12T10:13:30.262Z,1020.98
2019-05-12T10:14:28.874Z,1020.95
2019-05-12T10:15:28.739Z,1020.98
2019-05-12T10:16:29.162Z,1021.09
2019-05-12T10:17:30.208Z,1021.13
2019-05-12T10:18:29.427Z,1021.12
2019-05-12T10:19:28.604Z,1021.11
2019-05-12T10:20:29.122Z,1021.15
2019-05-12T10:21:30.927Z,1021.12
2019-05-12T10:22:29.995Z,1021.04
2019-05-12T10:23:31.335Z,1021.06
2019-05-12T10:24:34.445Z,1020.98
2019-05-12T10:25:33.929Z,1020.97
2019-05-12T10:26:30.866Z,1021.08
2019-05-12T10:27:31.960Z,1020.99
2019-05-12T10:28:31.147Z,1020.95
2019-05-12T10:29:32.388Z,1021.00
2019-05-12T10:30:30.517Z,1021.04
2019-05-12T10:31:35.649Z,1020.98
2019-05-12T10:32:34.282Z,1021.06
2019-05-12T10:33:31.037Z,1021.02
2019-05-12T10:34:36.018Z,1021.14
2019-05-12T10:35:35.114Z,1021.14
2019-05-12T10:36:33.643Z,1021.09
2019-05-12T10:37:31.748Z,1021.10
2019-05-12T10:38:34.226Z,1021.24
2019-05-12T10:39:33.440Z,1021.08
2019-05-12T10:40:33.866Z,1021.19
2019-05-12T10:41:34.250Z,1021.22
2019-05-12T10:42:33.751Z,1021.23
2019-05-12T10:43:34.281Z,1021.27
2019-05-12T10:44:39.258Z,1021.25
2019-05-12T10:45:35.416Z,1021.27
2019-05-12T10:46:33.579Z,1021.21
2019-05-12T10:47:34.356Z,1021.24
2019-05-12T10:48:34.951Z,1021.23
2019-05-12T10:49:34.091Z,1021.08
2019-05-12T10:50:34.428Z,1021.12
2019-05-12T10:51:34.501Z,1021.19
2019-05-12T10:52:38.854Z,1021.12
2019-05-12T10:53:34.919Z,1021.11
2019-05-12T10:54:35.147Z,1021.08
2019-05-12T10:55:35.334Z,1021.06
2019-05-12T10:56:35.546Z,1021.01
2019-05-12T10:57:35.764Z,1020.97
2019-05-12T10:58:36.011Z,1020.98
2019-05-12T10:59:38.915Z,1021.01
2019-05-12T11:00:38.306Z,1021.05
2019-05-12T11:01:38.360Z,1021.09
2019-05-12T11:02:38.669Z,1021.13
2019-05-12T11:03:36.855Z,1021.07
2019-05-12T11:04:40.934Z,1021.11
2019-05-12T11:05:38.154Z,1021.14
2019-05-12T11:06:39.696Z,1021.14
2019-05-12T11:07:39.493Z,1021.25
2019-05-12T11:08:41.264Z,1021.28
2019-05-12T11:09:39.829Z,1021.37
2019-05-12T11:10:37.992Z,1021.37
2019-05-12T11:11:42.374Z,1021.42
2019-05-12T11:12:40.403Z,1021.22
2019-05-12T11:13:40.390Z,1021.23
2019-05-12T11:14:40.761Z,1021.23
2019-05-12T11:15:39.415Z,1021.19
2019-05-12T11:16:42.516Z,1021.15
2019-05-12T11:17:40.394Z,1021.11
2019-05-12T11:18:40.437Z,1021.10
2019-05-12T11:19:40.633Z,1021.09
2019-05-12T11:20:41.736Z,1021.18
2019-05-12T11:21:40.879Z,1021.06
2019-05-12T11:22:40.048Z,1021.05
2019-05-12T11:23:40.221Z,1021.08
2019-05-12T11:24:44.209Z,1021.18
2019-05-12T11:25:40.607Z,1021.11
2019-05-12T11:26:43.112Z,1021.21
2019-05-12T11:27:40.925Z,1021.17
2019-05-12T11:28:41.049Z,1021.18
2019-05-12T11:29:46.245Z,1021.25
2019-05-12T11:30:43.766Z,1021.26
2019-05-12T11:31:44.084Z,1021.34
2019-05-12T11:32:44.156Z,1021.40
2019-05-12T11:33:43.603Z,1021.33
2019-05-12T11:34:43.826Z,1021.32
2019-05-12T11:35:43.522Z,1021.35
2019-05-12T11:36:43.845Z,1021.40
2019-05-12T11:37:43.520Z,1021.28
2019-05-12T11:38:44.408Z,1021.29
2019-05-12T11:39:46.886Z,1021.24
2019-05-12T11:40:43.978Z,1021.32
2019-05-12T11:41:44.313Z,1021.18
2019-05-12T11:42:48.400Z,1021.14
2019-05-12T11:43:45.611Z,1021.10
2019-05-12T11:44:44.305Z,1021.12
2019-05-12T11:45:44.957Z,1021.08
2019-05-12T11:46:44.313Z,1021.19
2019-05-12T11:47:45.239Z,1021.16
2019-05-12T11:48:46.297Z,1021.12
2019-05-12T11:49:46.583Z,1021.15
2019-05-12T11:50:47.830Z,1021.20
2019-05-12T11:51:46.853Z,1021.30
2019-05-12T11:52:45.948Z,1021.16
2019-05-12T11:53:46.316Z,1021.20
2019-05-12T11:54:47.223Z,1021.38
2019-05-12T11:55:47.592Z,1021.35
2019-05-12T11:56:49.183Z,1021.31
2019-05-12T11:57:46.865Z,1021.24
2019-05-12T11:58:47.431Z,1021.23
2019-05-12T11:59:59.168Z,1021.24
2019-05-12T12:00:48.478Z,1021.20
2019-05-12T12:01:49.757Z,1021.23
2019-05-12T12:02:47.859Z,1021.03
2019-05-12T12:03:46.992Z,1021.06
2019-05-12T12:04:47.129Z,1021.02
2019-05-12T12:05:47.333Z,1020.98
2019-05-12T12:06:47.511Z,1021.08
2019-05-12T12:07:51.261Z,1021.10